الصفحة الرئيسية
METAR-TAF:

METAR-TAF

مطار :

Pittsburgh International Airport

بيتسبرغ, بنسيلفانيا, الولايات المتحدة

دائرة عرض: 40-30-14N, خط طول: 080-15-59W, ارتفاع: 366 متر

مراقبة الطقس الحالي

تاريخ ووقت الإصدار 53 دقيقة قبل الساعة 09:51UTC
رياح هادئة
درجة الحرارة -8°درجة مئوية
الرطوبة 79%
ضغط 1035 hPa
الرؤية: 16.1 كم
سماء صافية

METAR: KPIT 120951Z 00000KT 10SM CLR M08/M11 A3057 RMK AO2 SLP380 T10831106

زمن: 05:44 (10:44 UTC)

توقعات

تاريخ ووقت الإصدار 1ساعة و 45 دقيقة قبل الساعة 08:59UTC
التوقعات صالحة من12 الساعة 09 UTC إلى 13 الساعة 12 UTC
ريح 3 عقدةمن اتجاهات متغيرة
الرؤية: 10 كم
سماء صافية
من 12 الساعة 1500 UTC
ريح 5 عقدةمن اتجاهات متغيرة
الرؤية: 10 كم
غيوم مفككة على ارتفاع 25000 قدم

TAF: KPIT 120859Z 1209/1312 VRB03KT P6SM SKC FM121500 VRB05KT P6SM BKN250

أرصاد الطقس والتوقعات من أكثر من 4000 مطار (تقارير الطقس للمطار METAR والتنبؤ بالطقس بالمطارTAF).

المحطات المتاحة هي النقط الصفراء والحمراء على الخريطة.

حرك المؤشر فوق النقطة لمعرفة اسم المحطة.

ثم انقر لمعرفة أرصاد وتوقعات الطقس.

لتغيير الخارطة: اضغط على الأزرار الخضراء مع رمز الصليب الأسود للتكبير. على الزر الأخضر مع شرطة للتصغير، أو على الأسهم الخضراء للخرائط المجاورة.


METAR-TAF: